Wilma — V2AB2 — position and weather

sailwx.info

Track history (hours):
 
Tides and Currents Weather Stations Pressure Air Temp Water Temp Dewpoint Dewpoint Depression Visibility Wind Speed Wind Dir Waves Ship Positions

Wilma

Last reported at 2015-Jan-28 19:33 UTC. Time now 2015-Jan-28 20:12 UTC.
Position N 31°24' E 121°35'.

Length 152 m; draft 6.4 m.

Type: Cargo ship. MMSI: 304080754.

Date/timePositionNaut miles runAvg speedWind from/ knotsBaromVisibWave heightAir tempDewpointWater temp
2015-Jan-28 19:33N 31°24' E 121°35'0 0.0
2015-Jan-28 18:33N 31°24' E 121°35'0 0.0
2015-Jan-28 17:33N 31°24' E 121°35'0 0.0
2015-Jan-28 16:32N 31°24' E 121°35'0 0.0
2015-Jan-28 15:31N 31°24' E 121°35'0 0.1
2015-Jan-28 14:33N 31°24' E 121°35'0 0.1
2015-Jan-28 13:29N 31°24' E 121°35'0 0.0
2015-Jan-28 12:31N 31°24' E 121°35'0 0.0
2015-Jan-28 11:31N 31°24' E 121°35'0 0.0
2015-Jan-28 10:31N 31°24' E 121°35'0 0.0
2015-Jan-28 09:30N 31°24' E 121°35'0 0.0
2015-Jan-28 08:30N 31°24' E 121°35'0 0.1
2015-Jan-28 07:29N 31°24' E 121°35'0 0.1
2015-Jan-28 06:32N 31°24' E 121°35'0 0.0
2015-Jan-28 05:29N 31°24' E 121°35'0 0.0
2015-Jan-28 04:22N 31°24' E 121°35'0 0.0
2015-Jan-28 03:33N 31°24' E 121°35'0 0.1
2015-Jan-28 02:33N 31°24' E 121°35'0 0.0
2015-Jan-28 01:33N 31°24' E 121°35'0 0.0
2015-Jan-28 00:32N 31°24' E 121°35'0 0.1
2015-Jan-27 23:32N 31°24' E 121°35'0 0.0
2015-Jan-27 22:31N 31°24' E 121°35'0 0.0
2015-Jan-27 21:31N 31°24' E 121°35'0 0.0
2015-Jan-27 20:33N 31°24' E 121°35'0 0.1
2015-Jan-27 19:33N 31°24' E 121°35'0 0.0
2015-Jan-27 18:33N 31°24' E 121°35'0 0.1
2015-Jan-27 17:31N 31°24' E 121°35'0 0.0
2015-Jan-27 16:31N 31°24' E 121°35'0 0.0
2015-Jan-27 15:33N 31°24' E 121°35'0 0.0
2015-Jan-27 14:26N 31°24' E 121°35'0 0.1
2015-Jan-27 13:32N 31°24' E 121°35'0 0.0
2015-Jan-27 12:32N 31°24' E 121°35'0 0.0
2015-Jan-27 11:25N 31°24' E 121°35'0 0.1
2015-Jan-27 10:31N 31°24' E 121°35'0 0.0
2015-Jan-27 09:30N 31°24' E 121°35'4 3.9
2015-Jan-27 08:34N 31°23' E 121°31'6 5.7
2015-Jan-27 07:33N 31°18' E 121°34'5 5.5
2015-Jan-27 06:33N 31°14' E 121°30'6 5.9
2015-Jan-27 05:33N 31°08' E 121°28'1 1.2
2015-Jan-27 04:33N 31°07' E 121°28'0 0.0
2015-Jan-27 03:33N 31°07' E 121°28'0 0.0
2015-Jan-27 02:34N 31°07' E 121°28'0 0.0
2015-Jan-27 01:34N 31°07' E 121°28'0 0.0
2015-Jan-27 00:33N 31°07' E 121°28'0 0.0
2015-Jan-26 23:33N 31°07' E 121°28'0 0.0
2015-Jan-26 22:33N 31°07' E 121°28'0 0.0
2015-Jan-26 21:33N 31°07' E 121°28'0 0.0
2015-Jan-26 20:33N 31°07' E 121°28'0 0.0
2015-Jan-26 19:33N 31°07' E 121°28'0 0.0
2015-Jan-26 18:33N 31°07' E 121°28'0 0.0
2015-Jan-26 17:33N 31°07' E 121°28'0 0.0
2015-Jan-26 16:33N 31°07' E 121°28'0 0.0
2015-Jan-26 15:34N 31°07' E 121°28'0 0.0
2015-Jan-26 14:33N 31°07' E 121°28'0 0.0
2015-Jan-26 13:33N 31°07' E 121°28'0 0.0
2015-Jan-26 12:34N 31°07' E 121°28'0 0.0
2015-Jan-26 11:34N 31°07' E 121°28'0 0.0
2015-Jan-26 10:34N 31°07' E 121°28'0 0.0
2015-Jan-26 09:34N 31°07' E 121°28'0 0.0
2015-Jan-26 08:33N 31°07' E 121°28'0 0.0
2015-Jan-26 07:33N 31°07' E 121°28'0 0.0
2015-Jan-26 06:34N 31°07' E 121°28'0 0.0
2015-Jan-26 05:33N 31°07' E 121°28'0 0.0
2015-Jan-26 04:34N 31°07' E 121°28'0 0.0
2015-Jan-26 03:33N 31°07' E 121°28'0 0.0
2015-Jan-26 02:33N 31°07' E 121°28'0 0.0
2015-Jan-26 01:33N 31°07' E 121°28'0 0.0
2015-Jan-26 00:34N 31°07' E 121°28'0 0.0
2015-Jan-25 23:34N 31°07' E 121°28'0 0.0
2015-Jan-25 22:34N 31°07' E 121°28'0 0.0
2015-Jan-25 21:33N 31°07' E 121°28'0 0.0
2015-Jan-25 20:34N 31°07' E 121°28'0 0.0
2015-Jan-25 19:33N 31°07' E 121°28'0 0.0
2015-Jan-25 18:34N 31°07' E 121°28'0 0.0
2015-Jan-25 17:33N 31°07' E 121°28'0 0.0
2015-Jan-25 16:34N 31°07' E 121°28'0 0.0
2015-Jan-25 15:34N 31°07' E 121°28'0 0.0
2015-Jan-25 14:34N 31°07' E 121°28'0 0.0
2015-Jan-25 13:33N 31°07' E 121°28'0 0.0
2015-Jan-25 12:33N 31°07' E 121°28'0 0.0
2015-Jan-25 11:34N 31°07' E 121°28'0 0.0
2015-Jan-25 10:34N 31°07' E 121°28'0 0.0
2015-Jan-25 09:34N 31°07' E 121°28'0 0.0
2015-Jan-25 08:34N 31°07' E 121°28'0 0.0
2015-Jan-25 07:34N 31°07' E 121°28'0 0.0
2015-Jan-25 06:34N 31°07' E 121°28'0 0.0
2015-Jan-25 05:34N 31°07' E 121°28'0 0.0
2015-Jan-25 04:33N 31°07' E 121°28'0 0.0
2015-Jan-25 03:34N 31°07' E 121°28'0 0.0
2015-Jan-25 02:34N 31°07' E 121°28'0 0.0
2015-Jan-25 01:33N 31°07' E 121°28'0 0.0
2015-Jan-25 00:33N 31°07' E 121°28'0 0.0
2015-Jan-24 23:33N 31°07' E 121°28'0 0.0
2015-Jan-24 22:33N 31°07' E 121°28'0 0.0
2015-Jan-24 21:33N 31°07' E 121°28'0 0.0
2015-Jan-24 20:33N 31°07' E 121°28'0 0.0
2015-Jan-24 19:33N 31°07' E 121°28'0 0.0
2015-Jan-24 18:33N 31°07' E 121°28'0 0.0
2015-Jan-24 17:33N 31°07' E 121°28'0 0.0
2015-Jan-24 16:33N 31°07' E 121°28'0 0.0
2015-Jan-24 15:33N 31°07' E 121°28'0 0.0
2015-Jan-24 14:33N 31°07' E 121°28'0 0.0
2015-Jan-24 13:33N 31°07' E 121°28'0 0.0
2015-Jan-24 12:33N 31°07' E 121°28'0 0.0
2015-Jan-24 11:33N 31°07' E 121°28'0 0.0
2015-Jan-24 10:33N 31°07' E 121°28'0 0.0
2015-Jan-24 09:33N 31°07' E 121°28'0 0.0
2015-Jan-24 08:33N 31°07' E 121°28'0 0.0
2015-Jan-24 07:33N 31°07' E 121°28'0 0.0
2015-Jan-24 06:33N 31°07' E 121°28'0 0.0
2015-Jan-24 05:33N 31°07' E 121°28'0 0.0
2015-Jan-24 04:33N 31°07' E 121°28'0 0.0
2015-Jan-24 03:33N 31°07' E 121°28'0 0.0
2015-Jan-24 02:33N 31°07' E 121°28'0 0.0
2015-Jan-24 01:33N 31°07' E 121°28'0 0.0
2015-Jan-24 00:33N 31°07' E 121°28'0 0.0
2015-Jan-23 23:33N 31°07' E 121°28'0 0.0
2015-Jan-23 22:33N 31°07' E 121°28'0 0.0
2015-Jan-23 21:33N 31°07' E 121°28'0 0.0
2015-Jan-23 20:33N 31°07' E 121°28'0 0.0
2015-Jan-23 19:33N 31°07' E 121°28'0 0.0
2015-Jan-23 18:33N 31°07' E 121°28'0 0.0
2015-Jan-23 17:33N 31°07' E 121°28'0 0.0
2015-Jan-23 16:33N 31°07' E 121°28'0 0.0
2015-Jan-23 15:33N 31°07' E 121°28'0 0.0
2015-Jan-23 14:33N 31°07' E 121°28'0 0.0
2015-Jan-23 13:33N 31°07' E 121°28'0 0.0
2015-Jan-23 12:33N 31°07' E 121°28'0 0.0
2015-Jan-23 11:33N 31°07' E 121°28'0 0.0
2015-Jan-23 10:33N 31°07' E 121°28'0 0.0
2015-Jan-23 09:33N 31°07' E 121°28'0 0.0
2015-Jan-23 08:33N 31°07' E 121°28'0 0.0
2015-Jan-23 07:33N 31°07' E 121°28'0 0.0
2015-Jan-23 06:33N 31°07' E 121°28'0 0.0
2015-Jan-23 05:33N 31°07' E 121°28'0 0.0
2015-Jan-23 04:33N 31°07' E 121°28'0 0.0
2015-Jan-23 03:33N 31°07' E 121°28'0 0.0
2015-Jan-23 02:33N 31°07' E 121°28'0 0.0
2015-Jan-23 01:33N 31°07' E 121°28'0 0.0
2015-Jan-23 00:33N 31°07' E 121°28'0 0.0
2015-Jan-22 23:33N 31°07' E 121°28'0 0.0
2015-Jan-22 22:33N 31°07' E 121°28'0 0.0
2015-Jan-22 21:33N 31°07' E 121°28'0 0.0
2015-Jan-22 20:33N 31°07' E 121°28'0 0.0
2015-Jan-22 19:33N 31°07' E 121°28'0 0.0
2015-Jan-22 18:33N 31°07' E 121°28'0 0.0
2015-Jan-22 17:33N 31°07' E 121°28'0 0.0
2015-Jan-22 16:33N 31°07' E 121°28'0 0.0
2015-Jan-22 15:33N 31°07' E 121°28'0 0.0
2015-Jan-22 14:33N 31°07' E 121°28'0 0.0
2015-Jan-22 13:33N 31°07' E 121°28'0 0.0
2015-Jan-22 12:33N 31°07' E 121°28'0 0.0
2015-Jan-22 11:33N 31°07' E 121°28'0 0.0
2015-Jan-22 10:33N 31°07' E 121°28'0 0.0
2015-Jan-22 09:33N 31°07' E 121°28'0 0.0
2015-Jan-22 08:33N 31°07' E 121°28'0 0.0
2015-Jan-22 07:33N 31°07' E 121°28'0 0.0
2015-Jan-22 06:33N 31°07' E 121°28'0 0.0
2015-Jan-22 05:33N 31°07' E 121°28'0 0.0
2015-Jan-22 04:33N 31°07' E 121°28'0 0.0
2015-Jan-22 03:34N 31°07' E 121°28'0 0.0
2015-Jan-22 02:33N 31°07' E 121°28'0 0.0
2015-Jan-22 01:33N 31°07' E 121°28'0 0.0
2015-Jan-22 00:33N 31°07' E 121°28'0 0.0
2015-Jan-21 23:33N 31°07' E 121°28'0 0.0
2015-Jan-21 22:50N 31°07' E 121°28'0 0.0
2015-Jan-21 22:46N 31°07' E 121°28'0 0.0
2015-Jan-21 22:33N 31°07' E 121°28'0 0.0
2015-Jan-21 21:33N 31°07' E 121°28'0 0.0
2015-Jan-21 20:33N 31°07' E 121°28'0 0.0
2015-Jan-21 19:33N 31°07' E 121°28'0 0.0
2015-Jan-21 18:33N 31°07' E 121°28'0 0.0
2015-Jan-21 17:33N 31°07' E 121°28'0 0.0
2015-Jan-21 16:33N 31°07' E 121°28'0 0.0
2015-Jan-21 15:33N 31°07' E 121°28'0 0.0
2015-Jan-21 14:33N 31°07' E 121°28'0 0.0
2015-Jan-21 13:33N 31°07' E 121°28'0 0.0
2015-Jan-21 12:33N 31°07' E 121°28'0 0.0
2015-Jan-21 11:33N 31°07' E 121°28'0 0.0
2015-Jan-21 10:33N 31°07' E 121°28'0 0.0
2015-Jan-21 09:34N 31°07' E 121°28'0 0.0
2015-Jan-21 08:33N 31°07' E 121°28'0 0.0
2015-Jan-21 07:33N 31°07' E 121°28'0 0.0
2015-Jan-21 06:33N 31°07' E 121°28'0 0.0
2015-Jan-21 05:33N 31°07' E 121°28'0 0.0
2015-Jan-21 04:33N 31°07' E 121°28'0 0.0
2015-Jan-21 03:33N 31°07' E 121°28'0 0.0
2015-Jan-21 02:33N 31°07' E 121°28'0 0.0
2015-Jan-21 01:33N 31°07' E 121°28'0 0.0
2015-Jan-21 00:33N 31°07' E 121°28'0 0.0
2015-Jan-20 23:33N 31°07' E 121°28'0 0.0
2015-Jan-20 22:33N 31°07' E 121°28'0 0.0
2015-Jan-20 21:34N 31°07' E 121°28'0 0.0
2015-Jan-20 20:33N 31°07' E 121°28'0 0.0
2015-Jan-20 19:33N 31°07' E 121°28'0 0.0
2015-Jan-20 18:33N 31°07' E 121°28'0 0.0
2015-Jan-20 17:34N 31°07' E 121°28'0 0.0
2015-Jan-20 16:33N 31°07' E 121°28'0 0.0
2015-Jan-20 15:34N 31°07' E 121°28'0 0.0
2015-Jan-20 14:33N 31°07' E 121°28'0 0.0
2015-Jan-20 13:34N 31°07' E 121°28'0 0.0
2015-Jan-20 12:33N 31°07' E 121°28'0 0.0
2015-Jan-20 11:33N 31°07' E 121°28'0 0.0
2015-Jan-20 10:34N 31°07' E 121°28'0 0.0
2015-Jan-20 09:34N 31°07' E 121°28'0 0.0
2015-Jan-20 08:33N 31°07' E 121°28'1 0.9
2015-Jan-20 07:33N 31°08' E 121°28'4 3.8
2015-Jan-20 06:34N 31°11' E 121°28'5 5.0
2015-Jan-20 05:33N 31°15' E 121°32'5 5.3
2015-Jan-20 04:32N 31°21' E 121°32'3 3.5
2015-Jan-20 03:33N 31°24' E 121°34'10 9.9
2015-Jan-20 02:34N 31°18' E 121°43'1312.5
2015-Jan-20 01:33N 31°09' E 121°54'36 2.7
2015-Jan-19 12:28N 31°09' E 122°35'0 0.0
2015-Jan-19 10:24N 31°09' E 122°35'0 0.0
2015-Jan-19 09:33N 31°09' E 122°35'0 0.1
2015-Jan-19 07:28N 31°09' E 122°36'  
Track history (hours):
 
Tides and Currents Weather Stations Pressure Air Temp Water Temp Dewpoint Dewpoint Depression Visibility Wind Speed Wind Dir Waves Ship Positions

Wilma

Last reported at 2015-Jan-28 19:33 UTC. Time now 2015-Jan-28 20:12 UTC.
Position N 31°24' E 121°35'.

Length 152 m; draft 6.4 m.

Type: Cargo ship. MMSI: 304080754.

Date/timePositionNaut miles runAvg speedWind from/ knotsBaromVisibWave heightAir tempDewpointWater temp
2015-Jan-28 19:33N 31°24' E 121°35'0 0.0
2015-Jan-28 18:33N 31°24' E 121°35'0 0.0
2015-Jan-28 17:33N 31°24' E 121°35'0 0.0
2015-Jan-28 16:32N 31°24' E 121°35'0 0.0
2015-Jan-28 15:31N 31°24' E 121°35'0 0.1
2015-Jan-28 14:33N 31°24' E 121°35'0 0.1
2015-Jan-28 13:29N 31°24' E 121°35'0 0.0
2015-Jan-28 12:31N 31°24' E 121°35'0 0.0
2015-Jan-28 11:31N 31°24' E 121°35'0 0.0
2015-Jan-28 10:31N 31°24' E 121°35'0 0.0
2015-Jan-28 09:30N 31°24' E 121°35'0 0.0
2015-Jan-28 08:30N 31°24' E 121°35'0 0.1
2015-Jan-28 07:29N 31°24' E 121°35'0 0.1
2015-Jan-28 06:32N 31°24' E 121°35'0 0.0
2015-Jan-28 05:29N 31°24' E 121°35'0 0.0
2015-Jan-28 04:22N 31°24' E 121°35'0 0.0
2015-Jan-28 03:33N 31°24' E 121°35'0 0.1
2015-Jan-28 02:33N 31°24' E 121°35'0 0.0
2015-Jan-28 01:33N 31°24' E 121°35'0 0.0
2015-Jan-28 00:32N 31°24' E 121°35'0 0.1
2015-Jan-27 23:32N 31°24' E 121°35'0 0.0
2015-Jan-27 22:31N 31°24' E 121°35'0 0.0
2015-Jan-27 21:31N 31°24' E 121°35'0 0.0
2015-Jan-27 20:33N 31°24' E 121°35'0 0.1
2015-Jan-27 19:33N 31°24' E 121°35'0 0.0
2015-Jan-27 18:33N 31°24' E 121°35'0 0.1
2015-Jan-27 17:31N 31°24' E 121°35'0 0.0
2015-Jan-27 16:31N 31°24' E 121°35'0 0.0
2015-Jan-27 15:33N 31°24' E 121°35'0 0.0
2015-Jan-27 14:26N 31°24' E 121°35'0 0.1
2015-Jan-27 13:32N 31°24' E 121°35'0 0.0
2015-Jan-27 12:32N 31°24' E 121°35'0 0.0
2015-Jan-27 11:25N 31°24' E 121°35'0 0.1
2015-Jan-27 10:31N 31°24' E 121°35'0 0.0
2015-Jan-27 09:30N 31°24' E 121°35'4 3.9
2015-Jan-27 08:34N 31°23' E 121°31'6 5.7
2015-Jan-27 07:33N 31°18' E 121°34'5 5.5
2015-Jan-27 06:33N 31°14' E 121°30'6 5.9
2015-Jan-27 05:33N 31°08' E 121°28'1 1.2
2015-Jan-27 04:33N 31°07' E 121°28'0 0.0
2015-Jan-27 03:33N 31°07' E 121°28'0 0.0
2015-Jan-27 02:34N 31°07' E 121°28'0 0.0
2015-Jan-27 01:34N 31°07' E 121°28'0 0.0
2015-Jan-27 00:33N 31°07' E 121°28'0 0.0
2015-Jan-26 23:33N 31°07' E 121°28'0 0.0
2015-Jan-26 22:33N 31°07' E 121°28'0 0.0
2015-Jan-26 21:33N 31°07' E 121°28'0 0.0
2015-Jan-26 20:33N 31°07' E 121°28'0 0.0
2015-Jan-26 19:33N 31°07' E 121°28'0 0.0
2015-Jan-26 18:33N 31°07' E 121°28'0 0.0
2015-Jan-26 17:33N 31°07' E 121°28'0 0.0
2015-Jan-26 16:33N 31°07' E 121°28'0 0.0
2015-Jan-26 15:34N 31°07' E 121°28'0 0.0
2015-Jan-26 14:33N 31°07' E 121°28'0 0.0
2015-Jan-26 13:33N 31°07' E 121°28'0 0.0
2015-Jan-26 12:34N 31°07' E 121°28'0 0.0
2015-Jan-26 11:34N 31°07' E 121°28'0 0.0
2015-Jan-26 10:34N 31°07' E 121°28'0 0.0
2015-Jan-26 09:34N 31°07' E 121°28'0 0.0
2015-Jan-26 08:33N 31°07' E 121°28'0 0.0
2015-Jan-26 07:33N 31°07' E 121°28'0 0.0
2015-Jan-26 06:34N 31°07' E 121°28'0 0.0
2015-Jan-26 05:33N 31°07' E 121°28'0 0.0
2015-Jan-26 04:34N 31°07' E 121°28'0 0.0
2015-Jan-26 03:33N 31°07' E 121°28'0 0.0
2015-Jan-26 02:33N 31°07' E 121°28'0 0.0
2015-Jan-26 01:33N 31°07' E 121°28'0 0.0
2015-Jan-26 00:34N 31°07' E 121°28'0 0.0
2015-Jan-25 23:34N 31°07' E 121°28'0 0.0
2015-Jan-25 22:34N 31°07' E 121°28'0 0.0
2015-Jan-25 21:33N 31°07' E 121°28'0 0.0
2015-Jan-25 20:34N 31°07' E 121°28'0 0.0
2015-Jan-25 19:33N 31°07' E 121°28'0 0.0
2015-Jan-25 18:34N 31°07' E 121°28'0 0.0
2015-Jan-25 17:33N 31°07' E 121°28'0 0.0
2015-Jan-25 16:34N 31°07' E 121°28'0 0.0
2015-Jan-25 15:34N 31°07' E 121°28'0 0.0
2015-Jan-25 14:34N 31°07' E 121°28'0 0.0
2015-Jan-25 13:33N 31°07' E 121°28'0 0.0
2015-Jan-25 12:33N 31°07' E 121°28'0 0.0
2015-Jan-25 11:34N 31°07' E 121°28'0 0.0
2015-Jan-25 10:34N 31°07' E 121°28'0 0.0
2015-Jan-25 09:34N 31°07' E 121°28'0 0.0
2015-Jan-25 08:34N 31°07' E 121°28'0 0.0
2015-Jan-25 07:34N 31°07' E 121°28'0 0.0
2015-Jan-25 06:34N 31°07' E 121°28'0 0.0
2015-Jan-25 05:34N 31°07' E 121°28'0 0.0
2015-Jan-25 04:33N 31°07' E 121°28'0 0.0
2015-Jan-25 03:34N 31°07' E 121°28'0 0.0
2015-Jan-25 02:34N 31°07' E 121°28'0 0.0
2015-Jan-25 01:33N 31°07' E 121°28'0 0.0
2015-Jan-25 00:33N 31°07' E 121°28'0 0.0
2015-Jan-24 23:33N 31°07' E 121°28'0 0.0
2015-Jan-24 22:33N 31°07' E 121°28'0 0.0
2015-Jan-24 21:33N 31°07' E 121°28'0 0.0
2015-Jan-24 20:33N 31°07' E 121°28'0 0.0
2015-Jan-24 19:33N 31°07' E 121°28'0 0.0
2015-Jan-24 18:33N 31°07' E 121°28'0 0.0
2015-Jan-24 17:33N 31°07' E 121°28'0 0.0
2015-Jan-24 16:33N 31°07' E 121°28'0 0.0
2015-Jan-24 15:33N 31°07' E 121°28'0 0.0
2015-Jan-24 14:33N 31°07' E 121°28'0 0.0
2015-Jan-24 13:33N 31°07' E 121°28'0 0.0
2015-Jan-24 12:33N 31°07' E 121°28'0 0.0
2015-Jan-24 11:33N 31°07' E 121°28'0 0.0
2015-Jan-24 10:33N 31°07' E 121°28'0 0.0
2015-Jan-24 09:33N 31°07' E 121°28'0 0.0
2015-Jan-24 08:33N 31°07' E 121°28'0 0.0
2015-Jan-24 07:33N 31°07' E 121°28'0 0.0
2015-Jan-24 06:33N 31°07' E 121°28'0 0.0
2015-Jan-24 05:33N 31°07' E 121°28'0 0.0
2015-Jan-24 04:33N 31°07' E 121°28'0 0.0
2015-Jan-24 03:33N 31°07' E 121°28'0 0.0
2015-Jan-24 02:33N 31°07' E 121°28'0 0.0
2015-Jan-24 01:33N 31°07' E 121°28'0 0.0
2015-Jan-24 00:33N 31°07' E 121°28'0 0.0
2015-Jan-23 23:33N 31°07' E 121°28'0 0.0
2015-Jan-23 22:33N 31°07' E 121°28'0 0.0
2015-Jan-23 21:33N 31°07' E 121°28'0 0.0
2015-Jan-23 20:33N 31°07' E 121°28'0 0.0
2015-Jan-23 19:33N 31°07' E 121°28'0 0.0
2015-Jan-23 18:33N 31°07' E 121°28'0 0.0
2015-Jan-23 17:33N 31°07' E 121°28'0 0.0
2015-Jan-23 16:33N 31°07' E 121°28'0 0.0
2015-Jan-23 15:33N 31°07' E 121°28'0 0.0
2015-Jan-23 14:33N 31°07' E 121°28'0 0.0
2015-Jan-23 13:33N 31°07' E 121°28'0 0.0
2015-Jan-23 12:33N 31°07' E 121°28'0 0.0
2015-Jan-23 11:33N 31°07' E 121°28'0 0.0
2015-Jan-23 10:33N 31°07' E 121°28'0 0.0
2015-Jan-23 09:33N 31°07' E 121°28'0 0.0
2015-Jan-23 08:33N 31°07' E 121°28'0 0.0
2015-Jan-23 07:33N 31°07' E 121°28'0 0.0
2015-Jan-23 06:33N 31°07' E 121°28'0 0.0
2015-Jan-23 05:33N 31°07' E 121°28'0 0.0
2015-Jan-23 04:33N 31°07' E 121°28'0 0.0
2015-Jan-23 03:33N 31°07' E 121°28'0 0.0
2015-Jan-23 02:33N 31°07' E 121°28'0 0.0
2015-Jan-23 01:33N 31°07' E 121°28'0 0.0
2015-Jan-23 00:33N 31°07' E 121°28'0 0.0
2015-Jan-22 23:33N 31°07' E 121°28'0 0.0
2015-Jan-22 22:33N 31°07' E 121°28'0 0.0
2015-Jan-22 21:33N 31°07' E 121°28'0 0.0
2015-Jan-22 20:33N 31°07' E 121°28'0 0.0
2015-Jan-22 19:33N 31°07' E 121°28'0 0.0
2015-Jan-22 18:33N 31°07' E 121°28'0 0.0
2015-Jan-22 17:33N 31°07' E 121°28'0 0.0
2015-Jan-22 16:33N 31°07' E 121°28'0 0.0
2015-Jan-22 15:33N 31°07' E 121°28'0 0.0
2015-Jan-22 14:33N 31°07' E 121°28'0 0.0
2015-Jan-22 13:33N 31°07' E 121°28'0 0.0
2015-Jan-22 12:33N 31°07' E 121°28'0 0.0
2015-Jan-22 11:33N 31°07' E 121°28'0 0.0
2015-Jan-22 10:33N 31°07' E 121°28'0 0.0
2015-Jan-22 09:33N 31°07' E 121°28'0 0.0
2015-Jan-22 08:33N 31°07' E 121°28'0 0.0
2015-Jan-22 07:33N 31°07' E 121°28'0 0.0
2015-Jan-22 06:33N 31°07' E 121°28'0 0.0
2015-Jan-22 05:33N 31°07' E 121°28'0 0.0
2015-Jan-22 04:33N 31°07' E 121°28'0 0.0
2015-Jan-22 03:34N 31°07' E 121°28'0 0.0
2015-Jan-22 02:33N 31°07' E 121°28'0 0.0
2015-Jan-22 01:33N 31°07' E 121°28'0 0.0
2015-Jan-22 00:33N 31°07' E 121°28'0 0.0
2015-Jan-21 23:33N 31°07' E 121°28'0 0.0
2015-Jan-21 22:50N 31°07' E 121°28'0 0.0
2015-Jan-21 22:46N 31°07' E 121°28'0 0.0
2015-Jan-21 22:33N 31°07' E 121°28'0 0.0
2015-Jan-21 21:33N 31°07' E 121°28'0 0.0
2015-Jan-21 20:33N 31°07' E 121°28'0 0.0
2015-Jan-21 19:33N 31°07' E 121°28'0 0.0
2015-Jan-21 18:33N 31°07' E 121°28'0 0.0
2015-Jan-21 17:33N 31°07' E 121°28'0 0.0
2015-Jan-21 16:33N 31°07' E 121°28'0 0.0
2015-Jan-21 15:33N 31°07' E 121°28'0 0.0
2015-Jan-21 14:33N 31°07' E 121°28'0 0.0
2015-Jan-21 13:33N 31°07' E 121°28'0 0.0
2015-Jan-21 12:33N 31°07' E 121°28'0 0.0
2015-Jan-21 11:33N 31°07' E 121°28'0 0.0
2015-Jan-21 10:33N 31°07' E 121°28'0 0.0
2015-Jan-21 09:34N 31°07' E 121°28'0 0.0
2015-Jan-21 08:33N 31°07' E 121°28'0 0.0
2015-Jan-21 07:33N 31°07' E 121°28'0 0.0
2015-Jan-21 06:33N 31°07' E 121°28'0 0.0
2015-Jan-21 05:33N 31°07' E 121°28'0 0.0
2015-Jan-21 04:33N 31°07' E 121°28'0 0.0
2015-Jan-21 03:33N 31°07' E 121°28'0 0.0
2015-Jan-21 02:33N 31°07' E 121°28'0 0.0
2015-Jan-21 01:33N 31°07' E 121°28'0 0.0
2015-Jan-21 00:33N 31°07' E 121°28'0 0.0
2015-Jan-20 23:33N 31°07' E 121°28'0 0.0
2015-Jan-20 22:33N 31°07' E 121°28'0 0.0
2015-Jan-20 21:34N 31°07' E 121°28'0 0.0
2015-Jan-20 20:33N 31°07' E 121°28'0 0.0
2015-Jan-20 19:33N 31°07' E 121°28'0 0.0
2015-Jan-20 18:33N 31°07' E 121°28'0 0.0
2015-Jan-20 17:34N 31°07' E 121°28'0 0.0
2015-Jan-20 16:33N 31°07' E 121°28'0 0.0
2015-Jan-20 15:34N 31°07' E 121°28'0 0.0
2015-Jan-20 14:33N 31°07' E 121°28'0 0.0
2015-Jan-20 13:34N 31°07' E 121°28'0 0.0
2015-Jan-20 12:33N 31°07' E 121°28'0 0.0
2015-Jan-20 11:33N 31°07' E 121°28'0 0.0
2015-Jan-20 10:34N 31°07' E 121°28'0 0.0
2015-Jan-20 09:34N 31°07' E 121°28'0 0.0
2015-Jan-20 08:33N 31°07' E 121°28'1 0.9
2015-Jan-20 07:33N 31°08' E 121°28'4 3.8
2015-Jan-20 06:34N 31°11' E 121°28'5 5.0
2015-Jan-20 05:33N 31°15' E 121°32'5 5.3
2015-Jan-20 04:32N 31°21' E 121°32'3 3.5
2015-Jan-20 03:33N 31°24' E 121°34'10 9.9
2015-Jan-20 02:34N 31°18' E 121°43'1312.5
2015-Jan-20 01:33N 31°09' E 121°54'36 2.7
2015-Jan-19 12:28N 31°09' E 122°35'0 0.0
2015-Jan-19 10:24N 31°09' E 122°35'0 0.0
2015-Jan-19 09:33N 31°09' E 122°35'0 0.1
2015-Jan-19 07:28N 31°09' E 122°36'  

Dump ship's entire track history